Aérodrome :
LOGIN :

S'inscrire | Disclaimer

   EN    FR    IT 

 










Légende :    VFR   VFR Marginal   IFR   IFR Intensif   IFR Très Intensif
Visi : 
Plafond : 
>= 8 km
>= 3000ft
5 à 8 km
1000 à 3000 ft
1500m à 5 km
500 à 1000 ft
800 à 1500m
200 à 500 ft
< 800m
< 200 ft
Symboles :   Orages  Brouillard  Fortes neiges  Fortes précipitations  Vent > 20 kt
SIGMETs :   Divers  Orages  Givrage  Turbulence  Onde Orograph.  Cendres Volcan.






- Altitude de l'aérodrome : 32 ft
- Code IATA : LKZ


EGUL - RAF Lakenheath

DERNIER METAR :
  • 282101Z AUTO 05004KT 1200 R06/1200V1300 BR FEW000 07/07 A2991 RMK AO2 SLP132 $

METARs EXPIRÉS :
  • 282045Z AUTO 00000KT 1600 R06/1400VP1500 BR FEW000 07/07 A2990 RMK AO2 SLP129 $
  • 282036Z AUTO 05003KT 1600 R06/1500VP1500 BR FEW000 07/07 A2990 RMK AO2 VIS 0800 RWY24 SLP129 $
  • 282031Z AUTO 04003KT 1400 R06/1400VP1500 BR FEW000 07/07 A2990 RMK AO2 SLP129 $
  • 282016Z AUTO 04006KT 1000 R06/1100V1300 BR FEW000 07/07 A2989 RMK AO2 SLP125 $
  • 282010Z AUTO 02005KT 1200 R06/1200V1400 BR CLR 07/07 A2988 RMK AO2 SLP122 $
  • 282000Z AUTO 36004KT 1000 R06/1000V1400 BR FEW085 07/07 A2988 RMK AO2 VIS 1000V1800 SLP122 $
  • 281951Z AUTO 36004KT 1600 R06/1300VP1500 BR FEW085 07/07 A2988 RMK AO2 VIS 1600V5000 SLP122 $
  • 281935Z AUTO 34004KT 6000 BR M 07/07 A2987 RMK AO2 VIS 2400 RWY24 SLP119 $
  • 281925Z AUTO 34003KT 8000 BR M 07/07 A2987 RMK AO2 VIS 1000 RWY24 SLP119 $
  • 281855Z AUTO 35003KT 9000 BR CLR 08/07 A2986 RMK AO2 DZB00E20 SLP115 P0000 T00750074 $
  • 281820Z AUTO 01004KT 9999 SCT038 08/07 A2985 RMK AO2 DZB00E20 SLP112 $

TAF AMD TAF EGUL
Valide du 28 à 18h jusqu'au 29 à 20h UTC


281800Z 2818/2920 20005KT 8000 BR SCT005 BKN020 QNH2982INS
BECMG 2818/2819 VRB05KT 5000 BR SCT007 BKN010 BKN015 QNH2985INS
BECMG 2820/2821 VRB03KT 2400 BR SCT003 SCT005 BKN008 QNH2992INS
BECMG 2821/2822 VRB03KT 1600 -DZ BR BKN003 OVC005 QNH2992INS
TEMPO 2822/2903 0800 FG OVC002
BECMG 2907/2908 36005KT 3200 BR SCT003 SCT005 BKN008 QNH3009INS
BECMG 2910/2911 VRB05KT 8000 BR SCT007 SCT010 BKN015 QNH3010INS TX08/2818Z TN05/2905Z LAST NO AMDS AFT 2818 NEXT 2906



MET'MAP, la Météo Aéronautique d'un coup d'oeil ! - Copyright ORBIFLY Décembre 2007 - Disclaimer

ORBIFLY MET'MAP TEAM :

Programmation & Développement : Alexandra Zaïnal
Sur une idée originale de : Baudouin d'Aumeries
Soutien technique & logistique : Manuel Goepfert
Assistance : Marc-Olivier Méhu




SOURCES & CREDITS :

   NOAA